Letzte erfasste Runde: - - - -
Platz Datum Fahrer Zeit Diff Fahrzeug Session Runden
- - Theoretische Bestzeit - - - - -
1 30.01.2018 Wolfgang Wöger 1:58.496 - Porsche 911 GT3 Cup 2017 Qualifying 2
2 30.01.2018 Nick Madsen 1:59.127 0.631 Porsche 911 GT3 Cup 2017 Qualifying 3
3 30.01.2018 Lennart Hartenberg 1:59.182 0.686 Porsche 911 GT3 Cup 2017 Qualifying 3
4 30.01.2018 Stephan Ebert 1:59.269 0.773 Porsche 911 GT3 Cup 2017 Qualifying 2
5 30.01.2018 Dennis Andlauer 1:59.477 0.981 Porsche 911 GT3 Cup 2017 Qualifying 18
6 30.01.2018 Christian Schmitt3 1:59.652 1.156 Porsche 911 GT3 Cup 2017 Qualifying 3
7 30.01.2018 Martin Kolibal 1:59.654 1.158 Porsche 911 GT3 Cup 2017 Qualifying 4
8 30.01.2018 Christoph Klawiter 1:59.898 1.402 Porsche 911 GT3 Cup 2017 Qualifying 10
9 30.01.2018 Pawel Rybak 2:00.090 1.594 Porsche 911 GT3 Cup 2017 Qualifying 2
10 30.01.2018 Hans-Bodo Kohl 2:00.181 1.685 Porsche 911 GT3 Cup 2017 Qualifying 3
11 30.01.2018 Mario Reich 2:00.291 1.795 Porsche 911 GT3 Cup 2017 Qualifying 4
12 30.01.2018 Tobias Jacken 2:00.423 1.927 Porsche 911 GT3 Cup 2017 Qualifying 3
13 30.01.2018 Manuel Tundo 2:00.707 2.211 Porsche 911 GT3 Cup 2017 Qualifying 4
14 30.01.2018 Marc Faetkenheuer 2:00.740 2.244 Porsche 911 GT3 Cup 2017 Qualifying 3
15 30.01.2018 Christopher Ennsgraber 2:00.803 2.307 Porsche 911 GT3 Cup 2017 Qualifying 4
16 30.01.2018 Ludwig Gemmer 2:00.831 2.335 Porsche 911 GT3 Cup 2017 Qualifying 2
17 30.01.2018 Daniel Sterna 2:00.874 2.378 Porsche 911 GT3 Cup 2017 Qualifying 4
18 30.01.2018 Marcel Stemmer 2:00.950 2.454 Porsche 911 GT3 Cup 2017 Qualifying 2
19 30.01.2018 Stefan Schukowski 2:01.204 2.708 Porsche 911 GT3 Cup 2017 Qualifying 3
20 30.01.2018 Helmut Weber 2:01.615 3.119 Porsche 911 GT3 Cup 2017 Qualifying 4
21 30.01.2018 Claudio Ferrera 2:02.165 3.669 Porsche 911 GT3 Cup 2017 Qualifying 3
22 30.01.2018 Matthias Huebl 2:02.536 4.040 Porsche 911 GT3 Cup 2017 Qualifying 4
23 30.01.2018 Kai Bartmann 2:02.737 4.241 Porsche 911 GT3 Cup 2017 Qualifying 4
24 30.01.2018 Frank Kleefeldt 2:02.892 4.396 Porsche 911 GT3 Cup 2017 Qualifying 4
25 30.01.2018 Johannes Neuses 2:02.957 4.461 Porsche 911 GT3 Cup 2017 Qualifying 4
26 30.01.2018 Carsten Fischer 2:03.156 4.660 Porsche 911 GT3 Cup 2017 Qualifying 4
27 30.01.2018 Marcel Bertram 2:03.408 4.912 Porsche 911 GT3 Cup 2017 Qualifying 3
28 01.09.2020 Joel Meili 2:08.071 9.575 Porsche 911 GT3 Cup 2017 Qualifying 44
29 01.09.2020 Carsten Wiedenhöfer 2:08.457 9.961 Porsche 911 GT3 Cup 2017 Qualifying 50
30 01.09.2020 Kevin Neitola 2:08.830 10.334 Porsche 911 GT3 Cup 2017 Qualifying 11
31 01.09.2020 Patrick Kessler 2:08.985 10.489 Porsche 911 GT3 Cup 2017 Qualifying 7
32 01.09.2020 Lucas Lippert 2:09.037 10.541 Porsche 911 GT3 Cup 2017 Qualifying 16
33 01.09.2020 Lukas Lang 2:09.039 10.543 Porsche 911 GT3 Cup 2017 Qualifying 39
34 01.09.2020 Lennart Kaiser 2:09.057 10.561 Porsche 911 GT3 Cup 2017 Qualifying 24
35 01.09.2020 KuweB 2:09.058 10.562 Porsche 911 GT3 Cup 2017 Qualifying 16
36 01.09.2020 Bernd Ziebell 2:09.083 10.587 Porsche 911 GT3 Cup 2017 Qualifying 20
37 01.09.2020 John Ehlen 2:09.277 10.781 Porsche 911 GT3 Cup 2017 Qualifying 27
38 01.09.2020 Till Behme 2:09.304 10.808 Porsche 911 GT3 Cup 2017 Qualifying 14
39 01.09.2020 Tobias Kurz 2:09.444 10.948 Porsche 911 GT3 Cup 2017 Qualifying 48
40 01.09.2020 Michael Henke2 2:09.637 11.141 Porsche 911 GT3 Cup 2017 Qualifying 34
41 01.09.2020 Stev Gutsche 2:10.038 11.542 Porsche 911 GT3 Cup 2017 Qualifying 21
42 01.09.2020 Alex Knauer 2:10.097 11.601 Porsche 911 GT3 Cup 2017 Qualifying 12
43 01.09.2020 Martin Lehmann 2:10.204 11.708 Porsche 911 GT3 Cup 2017 Qualifying 16
44 01.09.2020 Remo Zweifel 2:10.341 11.845 Porsche 911 GT3 Cup 2017 Qualifying 22
45 01.09.2020 Marcel Huwyler 2:10.607 12.111 Porsche 911 GT3 Cup 2017 Qualifying 4
46 01.09.2020 Oliver Höltke 2:11.534 13.038 Porsche 911 GT3 Cup 2017 Qualifying 20
47 01.09.2020 Stefan Volk 2:17.859 19.363 Porsche 911 GT3 Cup 2017 Qualifying 10

SERVER

0 / 61
virtualracing.org #1 GTM
Training 1Lime Rock Park -- Uphill Chicane
0 / 81
virtualracing.org #3 FS
Training 1Oulton Park International NC
0 / 81
virtualracing.org #4 LSM
Training 1Spa-Francorchamps Endurance
0 / 34
virtualracing.org #5 VRF1S
Training 1Zandvoort 2021
0 / 34
virtualracing.org #6 VRCS
Training 1Donington Park National Circuit
0 / 81
virtualracing.org #P1 BTCC
Training 1Silverstone International
0 / 81
virtualracing.org #P2 CA
Training 1Anglesey Circuit - Coastal
0 / 34
virtualracing.org #P3 Mini
Training 1Le Grand Circuit 1967
0 / 33
virtualracing.org #P4 IR18
Training 1Mid-Ohio Miller 200
0/31
virtualracing.org#4 GTC Training Standard
TrainingDaytona International Speedway - Road Course
0/31
virtualracing.org#5 GTC Training A
TrainingDaytona International Speedway - Road Course
0/24
virtualracing.org#30 ALT Training
TrainingFuji Speedway - Grand Prix Circuit 1968
0/32
virtualracing.org#33 GTC Starttest
TrainingDaytona International Speedway - Road Course